Ramsey, Pennsylvania
Current Conditions -  °F | °C
As of 4:54 AM on Sunday 23 Nov 2014 (Local Time) from KIPT Reporting Station
Haze Haze  
Wind Chill: 33°   Ceiling: 5000
Heat Index: 33°   Visibility: 6mi
Dew Point: 29°   Wind: 0mph
Humidity: 85%   Direction: NA
Pressure: 30.16"   Gusts: NA
Location:  41.1288°N, 77.1989°W
Report Text: KIPT 230954Z AUTO 00000KT 6SM BR BKN050 OVC070 01/M02 A3016 RMK AO2 SLP217 T00061017
Loading
Personal Weather Stations






























Interactive Weather Map New forecast layout! Learn more

10-Day Weather Forecast

Advertisements
Track Severe Weather on mobile